Hauptseite
METAR-TAF:

METAR-TAF

Flughäfen :

Flughafen Magdeburg-Cochstedt

Magdeburg, Deutschland

Breite: 51-51-18N, Länge: 11-25-08E, Höhe: 180 m

Beobachtung

Neuester Wetterbericht von vor 39 Minuten, um 19:20 UTC
Wind 4 kt aus Süd/Südwest
Temperatur 8°C
Luftfeuchtigkeit 87%
Luftdruck 997 hPa
Sichtweite 10 km oder mehr

METAR: EDBC 271920Z AUTO 20004KT 9999 // FEW033/// BKN060/// 08/06 Q0997

Zeit: 21:59 (19:59 UTC)


TAF: fehlend

Wetterbeobachtungen und Prognosen von mehr als 4000 Flughäfen (METAR und TAF Bericht).

Die verfügbaren Stationen werden durch gelbe und rote Markierungen auf der Karte dargestellt.

Führen Sie die Maus auf sie, um den Namen der Station zu sehen.

Darauf klicken, um die Beobachtung von Wetterbeobachtungen und Prognosen zu sehen.

Um die Karte zu ändern : klicken Sie auf den grünen Tasten mit einem schwarzen Kreuz Zum Vergrößern, auf den grünen Button mit einem Gedankenstrich zu verkleinern, oder auf die grünen Pfeile für benachbarte Karten.


METAR-TAF: